Hlavní strana
METAR-TAF:

METAR-TAF

Letiště :

Haugesund, Norsko

zeměpisná šířka: 59-21N, zeměpisná délka: 005-13E, výška: 2 m

Aktuální stav počasí

Zpráva byla vytvořena před 24 minutami, v 21:20 UTC
Východojihovýchodní vítr 10 kt
Teplota 6°C
Vlhkost vzduchu 87%
Tlak 993 hPa
Viditelnost 10 km a více
Skoro jasno ve výšce 3000 ft
Polojasno ve výšce 4500 ft

METAR: ENHD 122120Z 12010KT 9999 FEW030 SCT045 06/04 Q0993

Čas: 22:44 (21:44 UTC)

Předpověď počasí

Zpráva byla vytvořena před 4 hodinami a 44 minutami, v 17:00 UTC
Předpověď platná od 12 v 18 UTC do 12 v 22 UTC
Východní vítr 8 kt
Viditelnost 10 km a více
Skoro jasno ve výšce 1200 ft
Oblačno až skoro zataženo ve výšce 3000 ft
slabé dešťové přeháňky
Dočasný
od 12 v 18 UTC do 12 v 22 UTC
Oblačno až skoro zataženo ve výšce 1200 ft
Polojasno ve výšce 2000 ft, Cumulonimbus.

TAF: ENHD 121700Z 1218/1222 10008KT 9999 -SHRA FEW012 BKN030 TEMPO 1218/1222 BKN012 SCT020CB

Stav a předpovědi počasí z více než 4 000 letišť (zprávy METAR a TAF).

Červené a žluté tečky na mapě představují dostupné meteorologické stanice.

Když kurzor umístíte na tečku, zobrazí se název stanice.

Pak kliknutím zobrazíte stav a předpověď počasí.

Chcete-li změnit mapu, kliknutím na zelené tlačítko se znaménkem +mapu přiblížíte, kliknutím na zelené tlačítko se znaménkem – mapu oddálíte a kliknutím na zelené šipky přejdete na sousední mapy.


METAR-TAF: